Orbital elements of SARAL
| Launched | 24 February 2013 |
| Flight ended | – |
| Launch site | Satish Dhawan Space Centre, India (Formerly Sriharikota Launching Range) |
| Owner | India |
| NORAD ID | 39086 |
| Date fetched |
Epoch osculation |
Inc. [°] |
Ecc. | RA asc node [hr] |
Arg Peri. [°] |
Mean anom [°] |
Mean motion [rev/day] |
Abs. mag |
| Date fetched |
Epoch osculation |
Inc. [°] |
Ecc. | RA asc node [hr] |
Arg Peri. [°] |
Mean anom [°] |
Mean motion [rev/day] |
Abs. mag |
| 2026 May 08 17:57 | 2026 May 08 05:41:41 | 98.5563 | 0.00028 | 21.0207 | 61.5909 | 298.5553 | 14.32846 | 7.500 |
| 2026 May 07 17:58 | 2026 May 07 06:13:53 | 98.5563 | 0.00028 | 20.9563 | 63.4672 | 298.5553 | 14.32846 | 7.500 |
| 2026 May 06 17:57 | 2026 May 06 11:47:45 | 98.5563 | 0.00028 | 20.9057 | 64.8775 | 298.5553 | 14.32846 | 7.500 |
| 2026 May 05 17:57 | 2026 May 05 12:19:58 | 98.5562 | 0.00028 | 20.8414 | 66.5490 | 298.5553 | 14.32846 | 7.500 |
| 2026 May 04 17:57 | 2026 May 04 11:11:36 | 98.5562 | 0.00029 | 20.7724 | 68.4172 | 298.5553 | 14.32846 | 7.500 |
| 2026 May 03 17:57 | 2026 May 03 11:43:49 | 98.5561 | 0.00029 | 20.7081 | 70.1916 | 298.5553 | 14.32846 | 7.500 |
| 2026 May 02 17:57 | 2026 May 02 10:35:27 | 98.5562 | 0.00029 | 20.6391 | 72.1684 | 298.5553 | 14.32846 | 7.500 |
| 2026 May 01 17:56 | 2026 May 01 12:48:13 | 98.5562 | 0.00029 | 20.5794 | 73.9732 | 298.5553 | 14.32846 | 7.500 |
| 2026 Apr 30 17:56 | 2026 Apr 30 11:39:52 | 98.5563 | 0.00029 | 20.5104 | 75.7342 | 298.5553 | 14.32846 | 7.500 |
| 2026 Apr 29 17:57 | 2026 Apr 29 12:12:04 | 98.5564 | 0.00030 | 20.4460 | 77.2389 | 298.5553 | 14.32846 | 7.500 |
| 2026 Apr 28 17:56 | 2026 Apr 28 12:44:16 | 98.5564 | 0.00030 | 20.3817 | 79.2420 | 298.5553 | 14.32846 | 7.500 |
| 2026 Apr 27 17:58 | 2026 Apr 27 11:35:54 | 98.5565 | 0.00030 | 20.3127 | 81.1197 | 298.5553 | 14.32846 | 7.500 |
| 2026 Apr 26 17:58 | 2026 Apr 26 12:08:07 | 98.5565 | 0.00030 | 20.2484 | 82.9386 | 298.5553 | 14.32846 | 7.500 |
| 2026 Apr 25 17:58 | 2026 Apr 25 12:40:19 | 98.5565 | 0.00030 | 20.1840 | 84.7499 | 298.5553 | 14.32846 | 7.500 |
| 2026 Apr 24 17:59 | 2026 Apr 24 11:31:57 | 98.5565 | 0.00030 | 20.1151 | 86.4366 | 298.5553 | 14.32846 | 7.500 |
| 2026 Apr 23 17:57 | 2026 Apr 23 07:02:29 | 98.5565 | 0.00030 | 20.0369 | 88.5497 | 298.5553 | 14.32846 | 7.500 |
| 2026 Apr 22 17:57 | 2026 Apr 22 05:54:07 | 98.5565 | 0.00030 | 19.9679 | 90.5567 | 298.5553 | 14.32846 | 7.500 |
| 2026 Apr 21 17:57 | 2026 Apr 21 11:28:00 | 98.5564 | 0.00030 | 19.9174 | 91.7372 | 298.5553 | 14.32846 | 7.500 |
| 2026 Apr 20 17:57 | 2026 Apr 20 12:00:12 | 98.5564 | 0.00030 | 19.8530 | 93.5088 | 298.5553 | 14.32846 | 7.500 |
| 2026 Apr 19 17:58 | 2026 Apr 19 12:32:23 | 98.5564 | 0.00030 | 19.7887 | 95.4009 | 298.5553 | 14.32846 | 7.500 |
| 2026 Apr 18 17:56 | 2026 Apr 18 06:22:22 | 98.5565 | 0.00030 | 19.7059 | 97.6523 | 298.5553 | 14.32846 | 7.500 |
| 2026 Apr 16 17:57 | 2026 Apr 16 05:46:12 | 98.5565 | 0.00030 | 19.5726 | 101.3967 | 298.5553 | 14.32846 | 7.500 |
| 2026 Apr 14 17:57 | 2026 Apr 14 11:52:16 | 98.5566 | 0.00030 | 19.4577 | 104.4510 | 298.5553 | 14.32846 | 7.500 |
| 2026 Apr 13 17:57 | 2026 Apr 13 05:42:14 | 98.5566 | 0.00029 | 19.3749 | 106.8848 | 298.5553 | 14.32846 | 7.500 |
| 2026 Apr 12 17:57 | 2026 Apr 12 11:16:06 | 98.5566 | 0.00029 | 19.3243 | 108.2411 | 298.5553 | 14.32846 | 7.500 |
| 2026 Apr 11 17:57 | 2026 Apr 11 11:48:18 | 98.5567 | 0.00029 | 19.2600 | 109.9939 | 298.5553 | 14.32846 | 7.500 |